sensor_id;sensor_type;location;lat;lon;timestamp;P1;durP1;ratioP1;P2;durP2;ratioP2
62010;SDS011;47967;51.756;10.174;2022-10-16T04:01:59;2.85;;;2.20;;
62010;SDS011;47967;51.756;10.174;2022-10-16T04:06:02;9.60;;;2.30;;
62010;SDS011;47967;51.756;10.174;2022-10-16T04:10:05;5.20;;;2.20;;
62010;SDS011;47967;51.756;10.174;2022-10-16T04:18:12;2.88;;;2.00;;
62010;SDS011;47967;51.756;10.174;2022-10-16T04:22:15;2.78;;;2.20;;
62010;SDS011;47967;51.756;10.174;2022-10-16T04:26:17;3.45;;;1.90;;
62010;SDS011;47967;51.756;10.174;2022-10-16T04:30:20;4.72;;;2.28;;
62010;SDS011;47967;51.756;10.174;2022-10-16T04:34:25;7.35;;;2.08;;
62010;SDS011;47967;51.756;10.174;2022-10-16T04:38:27;5.13;;;2.15;;
62010;SDS011;47967;51.756;10.174;2022-10-16T04:42:30;2.00;;;1.90;;
62010;SDS011;47967;51.756;10.174;2022-10-16T04:46:33;5.07;;;2.23;;
62010;SDS011;47967;51.756;10.174;2022-10-16T04:50:37;3.05;;;2.25;;
62010;SDS011;47967;51.756;10.174;2022-10-16T04:54:40;4.93;;;2.17;;
62010;SDS011;47967;51.756;10.174;2022-10-16T04:58:42;2.40;;;2.20;;
62010;SDS011;47967;51.756;10.174;2022-10-16T05:02:45;5.20;;;2.60;;
62010;SDS011;47967;51.756;10.174;2022-10-16T05:06:49;3.70;;;2.20;;
62010;SDS011;47967;51.756;10.174;2022-10-16T05:10:52;4.35;;;2.20;;
62010;SDS011;47967;51.756;10.174;2022-10-16T05:14:54;5.43;;;2.60;;
62010;SDS011;47967;51.756;10.174;2022-10-16T05:18:59;2.47;;;1.98;;
62010;SDS011;47967;51.756;10.174;2022-10-16T05:23:23;3.00;;;2.70;;
62010;SDS011;47967;51.756;10.174;2022-10-16T05:27:26;3.42;;;2.08;;
62010;SDS011;47967;51.756;10.174;2022-10-16T05:31:29;6.95;;;2.67;;
62010;SDS011;47967;51.756;10.174;2022-10-16T05:35:32;3.60;;;2.93;;
62010;SDS011;47967;51.756;10.174;2022-10-16T05:39:37;4.93;;;3.08;;
62010;SDS011;47967;51.756;10.174;2022-10-16T05:43:40;4.63;;;3.10;;
62010;SDS011;47967;51.756;10.174;2022-10-16T05:47:42;3.47;;;2.90;;
62010;SDS011;47967;51.756;10.174;2022-10-16T05:51:45;5.23;;;2.87;;
62010;SDS011;47967;51.756;10.174;2022-10-16T05:55:52;5.50;;;2.90;;
62010;SDS011;47967;51.756;10.174;2022-10-16T05:59:55;6.72;;;3.88;;
62010;SDS011;47967;51.756;10.174;2022-10-16T06:03:57;4.27;;;2.97;;
62010;SDS011;47967;51.756;10.174;2022-10-16T06:08:00;3.03;;;2.70;;
62010;SDS011;47967;51.756;10.174;2022-10-16T06:12:04;5.37;;;3.47;;
62010;SDS011;47967;51.756;10.174;2022-10-16T06:16:07;3.45;;;3.00;;
62010;SDS011;47967;51.756;10.174;2022-10-16T06:24:13;8.23;;;2.88;;
62010;SDS011;47967;51.756;10.174;2022-10-16T06:28:17;6.33;;;3.20;;
62010;SDS011;47967;51.756;10.174;2022-10-16T06:32:20;5.78;;;3.10;;
62010;SDS011;47967;51.756;10.174;2022-10-16T06:36:23;3.77;;;3.17;;
62010;SDS011;47967;51.756;10.174;2022-10-16T06:40:27;4.68;;;3.00;;
62010;SDS011;47967;51.756;10.174;2022-10-16T06:44:31;5.85;;;3.13;;
62010;SDS011;47967;51.756;10.174;2022-10-16T06:48:34;6.30;;;3.60;;
62010;SDS011;47967;51.756;10.174;2022-10-16T06:52:36;5.67;;;3.23;;
62010;SDS011;47967;51.756;10.174;2022-10-16T06:56:39;7.57;;;3.30;;
62010;SDS011;47967;51.756;10.174;2022-10-16T07:00:43;7.57;;;3.20;;
62010;SDS011;47967;51.756;10.174;2022-10-16T07:04:45;4.57;;;3.35;;
62010;SDS011;47967;51.756;10.174;2022-10-16T07:08:48;5.67;;;3.70;;
62010;SDS011;47967;51.756;10.174;2022-10-16T07:12:51;4.82;;;3.20;;
62010;SDS011;47967;51.756;10.174;2022-10-16T07:16:55;4.90;;;3.40;;
62010;SDS011;47967;51.756;10.174;2022-10-16T07:21:02;4.93;;;3.25;;
62010;SDS011;47967;51.756;10.174;2022-10-16T07:25:06;7.10;;;3.22;;
62010;SDS011;47967;51.756;10.174;2022-10-16T07:29:12;3.60;;;2.72;;
62010;SDS011;47967;51.756;10.174;2022-10-16T07:33:18;3.15;;;2.60;;
62010;SDS011;47967;51.756;10.174;2022-10-16T07:37:21;3.92;;;3.00;;
62010;SDS011;47967;51.756;10.174;2022-10-16T07:41:24;4.38;;;2.97;;
62010;SDS011;47967;51.756;10.174;2022-10-16T07:45:30;5.70;;;2.83;;
62010;SDS011;47967;51.756;10.174;2022-10-16T07:49:34;4.35;;;2.70;;
62010;SDS011;47967;51.756;10.174;2022-10-16T07:53:37;5.22;;;2.30;;
62010;SDS011;47967;51.756;10.174;2022-10-16T07:57:40;2.25;;;2.05;;
62010;SDS011;47967;51.756;10.174;2022-10-16T08:01:43;2.08;;;1.85;;
62010;SDS011;47967;51.756;10.174;2022-10-16T08:05:47;1.63;;;1.52;;
62010;SDS011;47967;51.756;10.174;2022-10-16T08:09:50;2.13;;;1.50;;
62010;SDS011;47967;51.756;10.174;2022-10-16T08:17:57;2.00;;;1.38;;
62010;SDS011;47967;51.756;10.174;2022-10-16T08:22:01;2.15;;;1.63;;
62010;SDS011;47967;51.756;10.174;2022-10-16T08:26:05;1.50;;;1.40;;
62010;SDS011;47967;51.756;10.174;2022-10-16T08:30:09;2.03;;;1.67;;
62010;SDS011;47967;51.756;10.174;2022-10-16T08:34:12;1.40;;;1.20;;
62010;SDS011;47967;51.756;10.174;2022-10-16T08:38:16;4.40;;;1.80;;
62010;SDS011;47967;51.756;10.174;2022-10-16T08:42:22;1.88;;;1.40;;
62010;SDS011;47967;51.756;10.174;2022-10-16T08:46:41;2.20;;;1.23;;
62010;SDS011;47967;51.756;10.174;2022-10-16T08:50:51;1.38;;;1.27;;
62010;SDS011;47967;51.756;10.174;2022-10-16T08:54:56;1.15;;;1.00;;
62010;SDS011;47967;51.756;10.174;2022-10-16T08:58:59;1.40;;;1.30;;
62010;SDS011;47967;51.756;10.174;2022-10-16T09:03:05;1.52;;;1.10;;
62010;SDS011;47967;51.756;10.174;2022-10-16T09:07:16;1.23;;;1.05;;
62010;SDS011;47967;51.756;10.174;2022-10-16T09:11:30;2.53;;;1.10;;
62010;SDS011;47967;51.756;10.174;2022-10-16T09:15:46;2.72;;;1.20;;
62010;SDS011;47967;51.756;10.174;2022-10-16T09:19:56;2.47;;;1.02;;
62010;SDS011;47967;51.756;10.174;2022-10-16T09:24:13;7.65;;;1.10;;
62010;SDS011;47967;51.756;10.174;2022-10-16T09:28:24;0.80;;;0.80;;
62010;SDS011;47967;51.756;10.174;2022-10-16T09:32:27;1.92;;;0.90;;
62010;SDS011;47967;51.756;10.174;2022-10-16T09:36:30;4.05;;;1.00;;
62010;SDS011;47967;51.756;10.174;2022-10-16T09:40:41;0.95;;;0.93;;
62010;SDS011;47967;51.756;10.174;2022-10-16T09:44:48;2.47;;;1.00;;
62010;SDS011;47967;51.756;10.174;2022-10-16T09:48:54;2.63;;;1.27;;
62010;SDS011;47967;51.756;10.174;2022-10-16T09:53:05;1.05;;;0.88;;
62010;SDS011;47967;51.756;10.174;2022-10-16T09:57:11;2.50;;;0.80;;
62010;SDS011;47967;51.756;10.174;2022-10-16T10:01:17;1.02;;;0.80;;
62010;SDS011;47967;51.756;10.174;2022-10-16T10:05:21;0.80;;;0.77;;
62010;SDS011;47967;51.756;10.174;2022-10-16T10:09:26;0.77;;;0.60;;
62010;SDS011;47967;51.756;10.174;2022-10-16T10:13:32;0.70;;;0.70;;
62010;SDS011;47967;51.756;10.174;2022-10-16T10:17:46;0.68;;;0.68;;
62010;SDS011;47967;51.756;10.174;2022-10-16T10:21:50;1.42;;;0.77;;
62010;SDS011;47967;51.756;10.174;2022-10-16T10:25:53;2.67;;;0.70;;
62010;SDS011;47967;51.756;10.174;2022-10-16T10:30:02;0.70;;;0.70;;
62010;SDS011;47967;51.756;10.174;2022-10-16T10:34:18;2.47;;;0.80;;
62010;SDS011;47967;51.756;10.174;2022-10-16T10:38:39;1.10;;;1.00;;
62010;SDS011;47967;51.756;10.174;2022-10-16T10:42:46;3.20;;;0.50;;
62010;SDS011;47967;51.756;10.174;2022-10-16T10:46:57;2.28;;;0.63;;
62010;SDS011;47967;51.756;10.174;2022-10-16T10:51:06;1.35;;;0.45;;
62010;SDS011;47967;51.756;10.174;2022-10-16T10:55:17;1.13;;;0.60;;
62010;SDS011;47967;51.756;10.174;2022-10-16T11:04:22;3.05;;;0.70;;
62010;SDS011;47967;51.756;10.174;2022-10-16T11:08:50;2.28;;;0.60;;
62010;SDS011;47967;51.756;10.174;2022-10-16T11:13:04;1.10;;;0.60;;
62010;SDS011;47967;51.756;10.174;2022-10-16T11:17:13;2.20;;;0.60;;
62010;SDS011;47967;51.756;10.174;2022-10-16T11:21:21;1.80;;;0.60;;
62010;SDS011;47967;51.756;10.174;2022-10-16T11:25:32;1.85;;;0.80;;
62010;SDS011;47967;51.756;10.174;2022-10-16T11:29:36;1.50;;;0.70;;
62010;SDS011;47967;51.756;10.174;2022-10-16T11:33:47;2.90;;;0.63;;
62010;SDS011;47967;51.756;10.174;2022-10-16T11:37:54;0.45;;;0.43;;
62010;SDS011;47967;51.756;10.174;2022-10-16T11:42:01;0.93;;;0.50;;
62010;SDS011;47967;51.756;10.174;2022-10-16T11:46:10;1.52;;;0.57;;
62010;SDS011;47967;51.756;10.174;2022-10-16T11:50:18;0.98;;;0.50;;
62010;SDS011;47967;51.756;10.174;2022-10-16T11:54:28;0.75;;;0.50;;
62010;SDS011;47967;51.756;10.174;2022-10-16T11:58:41;2.20;;;0.35;;
62010;SDS011;47967;51.756;10.174;2022-10-16T12:02:56;1.17;;;0.40;;
62010;SDS011;47967;51.756;10.174;2022-10-16T12:07:06;1.98;;;0.40;;
62010;SDS011;47967;51.756;10.174;2022-10-16T12:11:22;1.73;;;0.55;;
62010;SDS011;47967;51.756;10.174;2022-10-16T12:15:34;2.88;;;0.65;;
62010;SDS011;47967;51.756;10.174;2022-10-16T12:19:57;1.10;;;0.77;;
62010;SDS011;47967;51.756;10.174;2022-10-16T12:24:02;0.35;;;0.30;;
62010;SDS011;47967;51.756;10.174;2022-10-16T12:28:06;3.50;;;0.43;;
62010;SDS011;47967;51.756;10.174;2022-10-16T12:32:25;0.90;;;0.40;;
62010;SDS011;47967;51.756;10.174;2022-10-16T12:36:48;1.55;;;0.63;;
62010;SDS011;47967;51.756;10.174;2022-10-16T12:40:56;0.45;;;0.30;;
62010;SDS011;47967;51.756;10.174;2022-10-16T12:45:02;0.98;;;0.40;;
62010;SDS011;47967;51.756;10.174;2022-10-16T12:49:31;1.27;;;0.60;;
62010;SDS011;47967;51.756;10.174;2022-10-16T12:53:38;0.45;;;0.30;;
62010;SDS011;47967;51.756;10.174;2022-10-16T12:57:45;1.20;;;0.50;;
62010;SDS011;47967;51.756;10.174;2022-10-16T13:06:57;0.30;;;0.30;;
62010;SDS011;47967;51.756;10.174;2022-10-16T13:11:08;1.35;;;0.40;;
62010;SDS011;47967;51.756;10.174;2022-10-16T13:15:24;0.50;;;0.40;;
62010;SDS011;47967;51.756;10.174;2022-10-16T13:19:38;0.77;;;0.60;;
62010;SDS011;47967;51.756;10.174;2022-10-16T13:23:51;0.73;;;0.60;;
62010;SDS011;47967;51.756;10.174;2022-10-16T13:28:00;4.32;;;0.52;;
62010;SDS011;47967;51.756;10.174;2022-10-16T13:32:06;0.43;;;0.43;;
62010;SDS011;47967;51.756;10.174;2022-10-16T13:36:18;1.80;;;0.52;;
62010;SDS011;47967;51.756;10.174;2022-10-16T13:40:24;1.08;;;0.47;;
62010;SDS011;47967;51.756;10.174;2022-10-16T13:44:26;1.15;;;0.70;;
62010;SDS011;47967;51.756;10.174;2022-10-16T13:48:29;0.50;;;0.43;;
62010;SDS011;47967;51.756;10.174;2022-10-16T13:52:33;1.20;;;0.50;;
62010;SDS011;47967;51.756;10.174;2022-10-16T13:56:38;0.40;;;0.40;;
62010;SDS011;47967;51.756;10.174;2022-10-16T14:00:51;2.53;;;0.50;;
62010;SDS011;47967;51.756;10.174;2022-10-16T14:04:56;0.35;;;0.35;;
62010;SDS011;47967;51.756;10.174;2022-10-16T14:09:00;0.55;;;0.40;;
62010;SDS011;47967;51.756;10.174;2022-10-16T14:13:12;0.40;;;0.40;;
62010;SDS011;47967;51.756;10.174;2022-10-16T14:17:20;2.00;;;0.60;;
62010;SDS011;47967;51.756;10.174;2022-10-16T14:21:25;0.40;;;0.40;;
62010;SDS011;47967;51.756;10.174;2022-10-16T14:25:28;1.85;;;0.52;;
62010;SDS011;47967;51.756;10.174;2022-10-16T14:29:34;0.68;;;0.50;;
62010;SDS011;47967;51.756;10.174;2022-10-16T14:33:37;0.60;;;0.40;;
62010;SDS011;47967;51.756;10.174;2022-10-16T14:37:39;2.30;;;0.73;;
62010;SDS011;47967;51.756;10.174;2022-10-16T14:41:43;2.40;;;0.40;;
62010;SDS011;47967;51.756;10.174;2022-10-16T14:45:52;1.40;;;0.40;;
62010;SDS011;47967;51.756;10.174;2022-10-16T14:49:56;1.38;;;0.30;;
62010;SDS011;47967;51.756;10.174;2022-10-16T14:54:00;2.85;;;0.63;;
62010;SDS011;47967;51.756;10.174;2022-10-16T15:02:09;2.90;;;0.40;;
62010;SDS011;47967;51.756;10.174;2022-10-16T15:06:23;5.45;;;0.60;;
62010;SDS011;47967;51.756;10.174;2022-10-16T15:10:26;1.13;;;0.68;;
62010;SDS011;47967;51.756;10.174;2022-10-16T15:14:30;1.40;;;0.40;;
62010;SDS011;47967;51.756;10.174;2022-10-16T15:18:35;4.45;;;1.75;;
62010;SDS011;47967;51.756;10.174;2022-10-16T15:22:37;4.45;;;3.58;;
62010;SDS011;47967;51.756;10.174;2022-10-16T15:26:40;3.50;;;1.50;;
62010;SDS011;47967;51.756;10.174;2022-10-16T15:30:43;2.28;;;0.82;;
62010;SDS011;47967;51.756;10.174;2022-10-16T15:34:48;1.45;;;1.00;;
62010;SDS011;47967;51.756;10.174;2022-10-16T15:38:51;3.50;;;1.00;;
62010;SDS011;47967;51.756;10.174;2022-10-16T15:42:54;2.25;;;1.90;;
62010;SDS011;47967;51.756;10.174;2022-10-16T15:51:01;2.13;;;0.80;;
62010;SDS011;47967;51.756;10.174;2022-10-16T15:55:07;2.30;;;0.95;;
62010;SDS011;47967;51.756;10.174;2022-10-16T15:59:11;2.25;;;0.80;;
62010;SDS011;47967;51.756;10.174;2022-10-16T16:03:13;2.45;;;0.80;;
62010;SDS011;47967;51.756;10.174;2022-10-16T16:07:20;5.22;;;0.50;;
62010;SDS011;47967;51.756;10.174;2022-10-16T16:11:23;3.58;;;0.70;;
62010;SDS011;47967;51.756;10.174;2022-10-16T16:15:26;2.50;;;0.50;;
62010;SDS011;47967;51.756;10.174;2022-10-16T16:19:29;2.67;;;0.52;;
62010;SDS011;47967;51.756;10.174;2022-10-16T16:23:34;4.55;;;1.10;;
62010;SDS011;47967;51.756;10.174;2022-10-16T16:27:37;4.03;;;1.77;;
62010;SDS011;47967;51.756;10.174;2022-10-16T16:31:40;4.60;;;0.85;;
62010;SDS011;47967;51.756;10.174;2022-10-16T16:35:43;2.35;;;0.82;;
62010;SDS011;47967;51.756;10.174;2022-10-16T16:39:47;1.10;;;0.50;;
62010;SDS011;47967;51.756;10.174;2022-10-16T16:43:50;2.30;;;0.60;;
62010;SDS011;47967;51.756;10.174;2022-10-16T16:47:53;3.97;;;0.80;;
62010;SDS011;47967;51.756;10.174;2022-10-16T16:51:55;29.05;;;12.02;;
62010;SDS011;47967;51.756;10.174;2022-10-16T16:56:01;20.73;;;9.45;;
62010;SDS011;47967;51.756;10.174;2022-10-16T17:00:05;7.82;;;3.28;;
62010;SDS011;47967;51.756;10.174;2022-10-16T17:04:09;11.13;;;4.20;;
62010;SDS011;47967;51.756;10.174;2022-10-16T17:08:12;8.32;;;3.97;;
62010;SDS011;47967;51.756;10.174;2022-10-16T17:12:17;16.30;;;5.88;;
62010;SDS011;47967;51.756;10.174;2022-10-16T17:16:20;7.72;;;4.35;;
62010;SDS011;47967;51.756;10.174;2022-10-16T17:20:23;9.73;;;4.60;;
62010;SDS011;47967;51.756;10.174;2022-10-16T17:24:27;6.68;;;3.58;;
62010;SDS011;47967;51.756;10.174;2022-10-16T17:28:31;8.00;;;4.57;;
62010;SDS011;47967;51.756;10.174;2022-10-16T17:32:35;6.88;;;3.40;;
62010;SDS011;47967;51.756;10.174;2022-10-16T17:36:38;11.63;;;3.20;;
62010;SDS011;47967;51.756;10.174;2022-10-16T17:40:44;9.75;;;3.00;;
62010;SDS011;47967;51.756;10.174;2022-10-16T17:44:48;13.33;;;3.80;;
62010;SDS011;47967;51.756;10.174;2022-10-16T17:48:51;4.65;;;3.60;;
62010;SDS011;47967;51.756;10.174;2022-10-16T17:52:55;5.07;;;2.03;;
62010;SDS011;47967;51.756;10.174;2022-10-16T17:56:57;4.18;;;2.58;;
62010;SDS011;47967;51.756;10.174;2022-10-16T18:01:02;8.57;;;4.85;;
62010;SDS011;47967;51.756;10.174;2022-10-16T18:05:13;13.15;;;6.00;;
62010;SDS011;47967;51.756;10.174;2022-10-16T18:09:17;8.13;;;3.20;;
62010;SDS011;47967;51.756;10.174;2022-10-16T18:13:21;7.55;;;3.28;;
62010;SDS011;47967;51.756;10.174;2022-10-16T18:17:25;7.18;;;3.50;;
62010;SDS011;47967;51.756;10.174;2022-10-16T18:21:28;12.43;;;5.72;;
62010;SDS011;47967;51.756;10.174;2022-10-16T18:25:31;8.60;;;3.72;;
62010;SDS011;47967;51.756;10.174;2022-10-16T18:29:33;18.60;;;8.95;;
62010;SDS011;47967;51.756;10.174;2022-10-16T18:33:39;8.73;;;4.75;;
62010;SDS011;47967;51.756;10.174;2022-10-16T18:37:48;8.43;;;5.63;;
62010;SDS011;47967;51.756;10.174;2022-10-16T18:41:52;8.60;;;5.00;;
62010;SDS011;47967;51.756;10.174;2022-10-16T18:46:00;6.60;;;4.60;;
62010;SDS011;47967;51.756;10.174;2022-10-16T18:50:06;7.78;;;3.92;;
62010;SDS011;47967;51.756;10.174;2022-10-16T18:54:12;5.85;;;3.13;;
62010;SDS011;47967;51.756;10.174;2022-10-16T18:58:15;10.03;;;5.40;;
62010;SDS011;47967;51.756;10.174;2022-10-16T19:02:17;12.05;;;5.40;;
62010;SDS011;47967;51.756;10.174;2022-10-16T19:06:21;8.27;;;4.78;;
62010;SDS011;47967;51.756;10.174;2022-10-16T19:10:25;8.35;;;4.30;;
62010;SDS011;47967;51.756;10.174;2022-10-16T19:14:27;16.23;;;7.70;;
62010;SDS011;47967;51.756;10.174;2022-10-16T19:18:32;9.15;;;5.07;;
62010;SDS011;47967;51.756;10.174;2022-10-16T19:22:40;5.40;;;2.75;;
62010;SDS011;47967;51.756;10.174;2022-10-16T19:26:54;9.25;;;3.30;;
62010;SDS011;47967;51.756;10.174;2022-10-16T19:30:59;7.53;;;4.07;;
62010;SDS011;47967;51.756;10.174;2022-10-16T19:35:04;8.52;;;4.75;;
62010;SDS011;47967;51.756;10.174;2022-10-16T19:39:12;11.75;;;5.88;;
62010;SDS011;47967;51.756;10.174;2022-10-16T19:43:17;13.23;;;8.00;;
62010;SDS011;47967;51.756;10.174;2022-10-16T19:47:20;12.53;;;6.50;;
62010;SDS011;47967;51.756;10.174;2022-10-16T19:51:23;12.20;;;5.53;;
62010;SDS011;47967;51.756;10.174;2022-10-16T19:55:30;8.23;;;4.80;;
62010;SDS011;47967;51.756;10.174;2022-10-16T19:59:33;2.75;;;1.50;;
62010;SDS011;47967;51.756;10.174;2022-10-16T20:03:36;4.18;;;2.70;;
62010;SDS011;47967;51.756;10.174;2022-10-16T20:07:40;6.03;;;4.15;;
62010;SDS011;47967;51.756;10.174;2022-10-16T20:11:44;10.23;;;4.57;;
62010;SDS011;47967;51.756;10.174;2022-10-16T20:15:47;8.68;;;3.85;;
62010;SDS011;47967;51.756;10.174;2022-10-16T20:19:50;7.00;;;3.60;;
62010;SDS011;47967;51.756;10.174;2022-10-16T20:23:53;6.67;;;3.70;;
62010;SDS011;47967;51.756;10.174;2022-10-16T20:27:58;8.50;;;3.72;;
62010;SDS011;47967;51.756;10.174;2022-10-16T20:32:00;6.55;;;2.90;;
62010;SDS011;47967;51.756;10.174;2022-10-16T20:40:07;3.28;;;2.40;;
62010;SDS011;47967;51.756;10.174;2022-10-16T20:44:12;5.18;;;3.40;;
62010;SDS011;47967;51.756;10.174;2022-10-16T20:48:15;6.57;;;3.22;;
62010;SDS011;47967;51.756;10.174;2022-10-16T20:52:17;5.77;;;3.20;;
62010;SDS011;47967;51.756;10.174;2022-10-16T20:56:20;3.00;;;1.40;;
